createdAt,value
2018-12-17T00:00:20.342Z,87.35
2018-12-17T00:02:49.394Z,86.78
2018-12-17T00:05:18.480Z,86.68
2018-12-17T00:07:47.239Z,86.76
2018-12-17T00:10:16.268Z,86.81
2018-12-17T00:12:45.269Z,86.62
2018-12-17T00:15:14.392Z,85.69
2018-12-17T00:17:43.324Z,86.08
2018-12-17T00:20:12.443Z,86.18
2018-12-17T00:22:41.240Z,86.06
2018-12-17T00:25:10.254Z,86.22
2018-12-17T00:27:39.141Z,86.69
2018-12-17T00:30:09.845Z,87.15
2018-12-17T00:32:38.533Z,86.57
2018-12-17T00:35:07.520Z,86.61
2018-12-17T00:37:36.594Z,86.28
2018-12-17T00:40:07.144Z,85.96
2018-12-17T00:42:36.120Z,86.07
2018-12-17T00:45:05.614Z,86.93
2018-12-17T00:47:34.404Z,86.93
2018-12-17T00:50:03.178Z,86.73
2018-12-17T00:52:32.252Z,86.16
2018-12-17T00:55:01.294Z,85.90
2018-12-17T00:57:30.411Z,85.76
2018-12-17T00:59:59.044Z,86.06
2018-12-17T01:02:28.000Z,86.36
2018-12-17T01:04:57.001Z,86.55
2018-12-17T01:07:30.983Z,86.17
2018-12-17T01:10:00.069Z,85.49
2018-12-17T01:12:28.753Z,85.75
2018-12-17T01:14:57.659Z,85.43
2018-12-17T01:17:26.532Z,85.12
2018-12-17T01:19:55.366Z,85.41
2018-12-17T01:22:24.503Z,85.14
2018-12-17T01:24:53.556Z,85.26
2018-12-17T01:27:22.785Z,84.79
2018-12-17T01:29:51.805Z,85.29
2018-12-17T01:32:20.895Z,85.20
2018-12-17T01:34:49.759Z,85.39
2018-12-17T01:37:18.867Z,85.50
2018-12-17T01:39:47.749Z,85.09
2018-12-17T01:42:16.647Z,85.38
2018-12-17T01:44:45.756Z,84.93
2018-12-17T01:47:14.671Z,83.58
2018-12-17T01:49:43.754Z,84.21
2018-12-17T01:52:12.787Z,84.53
2018-12-17T01:54:41.723Z,84.91
2018-12-17T01:57:10.596Z,85.07
2018-12-17T01:59:39.444Z,84.88
2018-12-17T02:02:08.199Z,84.33
2018-12-17T02:04:37.244Z,84.36
2018-12-17T02:07:06.348Z,85.07
2018-12-17T02:09:35.471Z,84.52
2018-12-17T02:12:04.616Z,84.35
2018-12-17T02:14:33.666Z,84.65
2018-12-17T02:17:02.541Z,84.31
2018-12-17T02:19:31.543Z,84.32
2018-12-17T02:22:00.618Z,84.14
2018-12-17T02:24:29.628Z,84.40
2018-12-17T02:26:58.616Z,84.62
2018-12-17T02:29:27.620Z,85.02
2018-12-17T02:31:56.430Z,84.88
2018-12-17T02:34:25.261Z,84.95
2018-12-17T02:36:54.203Z,85.37
2018-12-17T02:39:23.221Z,84.00
2018-12-17T02:41:52.371Z,84.52
2018-12-17T02:44:21.476Z,84.73
2018-12-17T02:46:50.459Z,84.24
2018-12-17T02:49:19.580Z,85.03
2018-12-17T02:51:48.677Z,85.15
2018-12-17T02:54:17.332Z,85.02
2018-12-17T02:56:46.251Z,85.38
2018-12-17T02:59:15.317Z,85.08
2018-12-17T03:01:44.106Z,84.81
2018-12-17T03:04:13.104Z,84.26
2018-12-17T03:06:42.201Z,84.17
2018-12-17T03:09:10.965Z,84.69
2018-12-17T03:11:39.979Z,85.59
2018-12-17T03:14:09.059Z,85.71
2018-12-17T03:16:38.203Z,85.43
2018-12-17T03:19:07.151Z,85.41
2018-12-17T03:21:35.966Z,85.68
2018-12-17T03:24:05.402Z,85.02
2018-12-17T03:26:34.279Z,85.14
2018-12-17T03:29:03.233Z,85.20
2018-12-17T03:31:32.416Z,84.60
2018-12-17T03:34:01.397Z,84.82
2018-12-17T03:36:30.123Z,85.04
2018-12-17T03:38:59.239Z,85.64
2018-12-17T03:41:28.116Z,83.96
2018-12-17T03:43:56.867Z,83.75
2018-12-17T03:46:25.572Z,84.41
2018-12-17T03:48:54.649Z,84.19
2018-12-17T03:51:23.620Z,84.02
2018-12-17T03:53:52.739Z,84.94
2018-12-17T03:56:21.529Z,85.33
2018-12-17T03:58:50.588Z,84.97
2018-12-17T04:01:19.508Z,85.18
2018-12-17T04:03:48.511Z,84.43
2018-12-17T04:06:17.451Z,84.14
2018-12-17T04:08:46.122Z,84.69
2018-12-17T04:11:14.903Z,84.32
2018-12-17T04:13:43.902Z,84.87
2018-12-17T04:16:12.607Z,84.48
2018-12-17T04:18:41.534Z,84.49
2018-12-17T04:21:10.571Z,84.62
2018-12-17T04:23:39.529Z,84.24
2018-12-17T04:26:08.510Z,84.47
2018-12-17T04:28:37.433Z,83.92
2018-12-17T04:31:06.593Z,84.16
2018-12-17T04:33:35.493Z,83.85
2018-12-17T04:36:04.701Z,84.55
2018-12-17T04:38:33.609Z,84.47
2018-12-17T04:41:02.738Z,83.76
2018-12-17T04:43:31.635Z,84.37
2018-12-17T04:46:00.684Z,83.47
2018-12-17T04:48:29.658Z,82.59
2018-12-17T04:50:58.777Z,83.28
2018-12-17T04:53:27.753Z,82.84
2018-12-17T04:55:56.934Z,83.67
2018-12-17T04:58:26.022Z,84.73
2018-12-17T05:00:55.125Z,83.43
2018-12-17T05:03:24.032Z,82.69
2018-12-17T05:05:53.247Z,82.58
2018-12-17T05:08:22.196Z,82.21
2018-12-17T05:10:50.884Z,82.42
2018-12-17T05:13:19.617Z,83.09
2018-12-17T05:15:48.705Z,82.50
2018-12-17T05:18:17.657Z,82.32
2018-12-17T05:20:46.850Z,82.42
2018-12-17T05:23:15.722Z,82.18
2018-12-17T05:25:44.836Z,82.34
2018-12-17T05:28:14.039Z,82.66
2018-12-17T05:30:42.982Z,83.06
2018-12-17T05:33:12.252Z,83.84
2018-12-17T05:35:41.253Z,83.19
2018-12-17T05:38:10.282Z,83.35
2018-12-17T05:40:40.962Z,83.69
2018-12-17T05:43:09.912Z,83.63
2018-12-17T05:45:38.917Z,82.98
2018-12-17T05:48:07.818Z,82.88
2018-12-17T05:50:37.316Z,83.40
2018-12-17T05:53:06.169Z,82.95
2018-12-17T05:55:34.892Z,83.48
2018-12-17T05:58:03.926Z,84.21
2018-12-17T06:00:33.266Z,83.91
2018-12-17T06:03:02.178Z,83.54
2018-12-17T06:05:30.924Z,83.74
2018-12-17T06:08:00.018Z,83.57
2018-12-17T06:10:28.808Z,83.24
2018-12-17T06:12:57.787Z,82.27
2018-12-17T06:15:26.732Z,81.88
2018-12-17T06:17:55.516Z,82.28
2018-12-17T06:20:24.604Z,82.32
2018-12-17T06:22:53.648Z,82.92
2018-12-17T06:25:22.513Z,83.29
2018-12-17T06:27:51.320Z,82.26
2018-12-17T06:30:20.476Z,82.50
2018-12-17T06:32:49.532Z,82.25
2018-12-17T06:35:18.604Z,82.48
2018-12-17T06:37:47.359Z,82.76
2018-12-17T06:40:16.596Z,82.49
2018-12-17T06:42:45.439Z,82.41
2018-12-17T06:45:14.332Z,82.83
2018-12-17T06:47:43.320Z,82.99
2018-12-17T06:50:12.313Z,82.33
2018-12-17T06:52:41.341Z,82.25
2018-12-17T06:55:10.460Z,82.07
2018-12-17T06:57:39.615Z,83.11
2018-12-17T07:00:09.102Z,83.74
2018-12-17T07:02:37.991Z,83.83
2018-12-17T07:05:07.251Z,83.37
2018-12-17T07:07:36.243Z,82.75
2018-12-17T07:10:05.711Z,82.37
2018-12-17T07:12:34.726Z,83.11
2018-12-17T07:15:03.837Z,82.81
2018-12-17T07:17:32.968Z,81.96
2018-12-17T07:20:02.106Z,81.45
2018-12-17T07:22:30.905Z,81.42
2018-12-17T07:24:59.780Z,81.01
2018-12-17T07:27:29.539Z,80.65
2018-12-17T07:29:58.538Z,81.09
2018-12-17T07:32:27.586Z,81.68
2018-12-17T07:34:56.678Z,81.11
2018-12-17T07:37:25.402Z,80.29
2018-12-17T07:39:54.242Z,81.02
2018-12-17T07:42:22.976Z,80.96
2018-12-17T07:44:51.948Z,81.66
2018-12-17T07:47:20.910Z,79.65
2018-12-17T07:49:49.838Z,80.99
2018-12-17T07:52:18.807Z,79.90
2018-12-17T07:54:47.850Z,80.81
2018-12-17T07:57:17.083Z,80.85
2018-12-17T07:59:46.240Z,81.77
2018-12-17T08:02:24.664Z,80.76
2018-12-17T08:04:53.801Z,81.81
2018-12-17T08:07:22.597Z,81.22
2018-12-17T08:09:51.432Z,81.34
2018-12-17T08:12:20.381Z,81.99
2018-12-17T08:14:49.282Z,81.96
2018-12-17T08:17:18.581Z,80.86
2018-12-17T08:19:47.708Z,81.42
2018-12-17T08:22:16.628Z,80.68
2018-12-17T08:24:45.500Z,80.91
2018-12-17T08:27:14.461Z,78.80
2018-12-17T08:29:43.504Z,77.62
2018-12-17T08:32:12.277Z,77.92
2018-12-17T08:34:40.954Z,77.76
2018-12-17T08:37:10.075Z,77.79
2018-12-17T08:39:38.973Z,78.44
2018-12-17T08:42:07.991Z,79.21
2018-12-17T08:44:37.015Z,78.73
2018-12-17T08:47:05.808Z,78.45
2018-12-17T08:49:34.751Z,78.96
2018-12-17T08:52:03.577Z,80.18
2018-12-17T08:54:32.580Z,80.52
2018-12-17T08:57:01.399Z,81.17
2018-12-17T08:59:30.220Z,81.17
2018-12-17T09:01:58.976Z,81.73
2018-12-17T09:04:27.811Z,80.42
2018-12-17T09:06:56.840Z,81.04
2018-12-17T09:09:25.578Z,80.53
2018-12-17T09:11:54.256Z,80.17
2018-12-17T09:14:23.328Z,79.50
2018-12-17T09:16:52.309Z,79.29
2018-12-17T09:19:21.012Z,77.77
2018-12-17T09:21:49.783Z,77.34
2018-12-17T09:24:18.852Z,78.83
2018-12-17T09:26:47.696Z,79.91
2018-12-17T09:29:16.772Z,80.51
2018-12-17T09:31:45.518Z,80.36
2018-12-17T09:34:14.424Z,80.50
2018-12-17T09:36:43.543Z,80.15
2018-12-17T09:39:12.298Z,78.84
2018-12-17T09:41:41.295Z,79.12
2018-12-17T09:44:10.275Z,77.67
2018-12-17T09:46:39.293Z,77.05
2018-12-17T09:49:07.992Z,74.35
2018-12-17T09:51:36.856Z,74.17
2018-12-17T09:54:05.682Z,74.54
2018-12-17T09:56:34.499Z,75.09
2018-12-17T09:59:03.213Z,76.27
2018-12-17T10:01:32.111Z,77.34
2018-12-17T10:04:01.116Z,77.10
2018-12-17T10:06:30.177Z,77.39
2018-12-17T10:08:59.074Z,77.27
2018-12-17T10:11:28.162Z,78.02
2018-12-17T10:13:57.054Z,78.85
2018-12-17T10:16:25.799Z,77.58
2018-12-17T10:18:54.562Z,78.51
2018-12-17T10:21:23.273Z,78.75
2018-12-17T10:23:52.406Z,78.61
2018-12-17T10:26:21.237Z,78.61
2018-12-17T10:28:50.089Z,79.07
2018-12-17T10:31:18.854Z,80.07
2018-12-17T10:33:47.583Z,80.80
2018-12-17T10:36:16.444Z,80.78
2018-12-17T10:38:45.492Z,81.80
2018-12-17T10:41:14.460Z,81.63
2018-12-17T10:43:43.089Z,80.71
2018-12-17T10:46:11.799Z,79.26
2018-12-17T10:48:40.587Z,78.47
2018-12-17T10:51:09.286Z,79.05
2018-12-17T10:53:38.040Z,79.93
2018-12-17T10:56:07.152Z,79.21
2018-12-17T10:58:36.041Z,80.29
2018-12-17T11:01:10.359Z,79.82
2018-12-17T11:03:43.298Z,78.73
2018-12-17T11:06:16.995Z,78.84
2018-12-17T11:08:45.689Z,79.93
2018-12-17T11:11:14.422Z,80.50
2018-12-17T11:13:43.117Z,80.32
2018-12-17T11:16:11.871Z,79.07
2018-12-17T11:18:40.679Z,79.19
2018-12-17T11:21:09.398Z,77.49
2018-12-17T11:23:38.118Z,77.63
2018-12-17T11:26:06.847Z,76.37
2018-12-17T11:28:35.462Z,75.82
2018-12-17T11:31:04.275Z,75.98
2018-12-17T11:33:33.042Z,74.35
2018-12-17T11:36:01.693Z,73.33
2018-12-17T11:38:30.652Z,73.31
2018-12-17T11:40:59.646Z,71.84
2018-12-17T11:43:28.828Z,72.89
2018-12-17T11:45:57.886Z,73.44
2018-12-17T11:48:26.892Z,72.50
2018-12-17T11:50:55.875Z,73.30
2018-12-17T11:56:04.836Z,74.35
2018-12-17T11:58:33.476Z,74.63
2018-12-17T12:01:07.144Z,74.60
2018-12-17T12:03:38.852Z,74.76
2018-12-17T12:06:13.641Z,74.89
2018-12-17T12:08:38.419Z,74.68
2018-12-17T12:11:07.168Z,75.27
2018-12-17T12:13:35.917Z,75.56
2018-12-17T12:16:04.623Z,73.75
2018-12-17T12:18:33.329Z,74.77
2018-12-17T12:21:02.173Z,74.47
2018-12-17T12:23:30.871Z,74.66
2018-12-17T12:25:59.615Z,76.34
2018-12-17T12:28:28.309Z,77.62
2018-12-17T12:31:00.413Z,76.90
2018-12-17T12:33:27.831Z,73.65
2018-12-17T12:35:56.499Z,74.69
2018-12-17T12:38:25.269Z,76.96
2018-12-17T12:40:54.123Z,77.14
2018-12-17T12:43:23.213Z,77.42
2018-12-17T12:45:52.000Z,76.45
2018-12-17T12:48:20.733Z,77.57
2018-12-17T12:50:49.426Z,78.38
2018-12-17T12:53:18.281Z,79.75
2018-12-17T12:55:46.979Z,80.85
2018-12-17T12:58:15.642Z,81.79
2018-12-17T13:00:44.283Z,80.84
2018-12-17T13:03:13.353Z,79.77
2018-12-17T13:05:42.146Z,80.65
2018-12-17T13:08:11.234Z,80.85
2018-12-17T13:10:39.940Z,79.17
2018-12-17T13:13:08.908Z,79.42
2018-12-17T13:15:37.811Z,79.20
2018-12-17T13:18:06.773Z,79.79
2018-12-17T13:20:35.468Z,80.24
2018-12-17T13:23:05.368Z,79.47
2018-12-17T13:25:38.878Z,80.57
2018-12-17T13:28:07.883Z,81.12
2018-12-17T13:30:37.090Z,81.52
2018-12-17T13:33:06.038Z,82.13
2018-12-17T13:35:35.070Z,81.74
2018-12-17T13:38:04.053Z,82.01
2018-12-17T13:40:33.002Z,81.65
2018-12-17T13:43:01.892Z,81.95
2018-12-17T13:45:30.817Z,82.15
2018-12-17T13:47:59.962Z,81.37
2018-12-17T13:50:38.958Z,81.55
2018-12-17T13:53:13.163Z,81.60
2018-12-17T13:55:42.257Z,80.71
2018-12-17T13:58:12.056Z,81.22
2018-12-17T14:00:41.156Z,81.88
2018-12-17T14:03:10.180Z,82.86
2018-12-17T14:05:39.257Z,82.48
2018-12-17T14:08:08.307Z,82.21
2018-12-17T14:10:42.575Z,82.36
2018-12-17T14:13:11.345Z,83.41
2018-12-17T14:15:45.675Z,83.32
2018-12-17T14:18:19.760Z,83.97
2018-12-17T14:20:53.904Z,84.49
2018-12-17T14:23:22.836Z,84.01
2018-12-17T14:25:51.769Z,82.74
2018-12-17T14:28:20.928Z,82.97
2018-12-17T14:30:49.871Z,82.24
2018-12-17T14:33:18.864Z,81.35
2018-12-17T14:35:53.101Z,81.84
2018-12-17T14:38:22.012Z,81.62
2018-12-17T14:40:50.973Z,82.32
2018-12-17T14:43:20.074Z,81.35
2018-12-17T14:45:48.800Z,82.31
2018-12-17T14:48:17.945Z,82.47
2018-12-17T14:50:46.623Z,82.98
2018-12-17T14:53:15.550Z,84.03
2018-12-17T14:55:44.832Z,84.92
2018-12-17T14:58:13.663Z,85.34
2018-12-17T15:00:43.052Z,85.46
2018-12-17T15:03:12.777Z,85.39
2018-12-17T15:05:41.905Z,85.27
2018-12-17T15:08:11.092Z,83.90
2018-12-17T15:10:39.935Z,83.43
2018-12-17T15:13:08.723Z,83.61
2018-12-17T15:15:37.952Z,84.39
2018-12-17T15:18:07.059Z,84.87
2018-12-17T15:20:35.860Z,84.56
2018-12-17T15:23:05.044Z,85.65
2018-12-17T15:25:34.148Z,85.53
2018-12-17T15:28:03.237Z,85.64
2018-12-17T15:30:32.292Z,85.63
2018-12-17T15:33:01.648Z,85.23
2018-12-17T15:35:30.788Z,85.41
2018-12-17T15:37:59.705Z,85.76
2018-12-17T15:40:28.983Z,86.44
2018-12-17T15:42:57.884Z,86.79
2018-12-17T15:45:26.855Z,86.41
2018-12-17T15:47:55.539Z,86.17
2018-12-17T15:50:24.527Z,86.14
2018-12-17T15:52:53.640Z,86.35
2018-12-17T15:55:22.576Z,86.93
2018-12-17T15:57:51.398Z,87.08
2018-12-17T16:00:20.295Z,87.08
2018-12-17T16:02:49.373Z,86.83
2018-12-17T16:05:18.549Z,85.83
2018-12-17T16:07:47.559Z,85.93
2018-12-17T16:10:16.345Z,85.97
2018-12-17T16:12:45.036Z,85.83
2018-12-17T16:15:13.768Z,85.74
2018-12-17T16:17:42.643Z,86.31
2018-12-17T16:20:11.757Z,86.22
2018-12-17T16:22:40.608Z,85.99
2018-12-17T16:25:09.761Z,85.92
2018-12-17T16:27:38.799Z,85.83
2018-12-17T16:30:10.030Z,86.55
2018-12-17T16:32:38.883Z,86.93
2018-12-17T16:35:08.762Z,87.15
2018-12-17T16:37:37.741Z,86.75
2018-12-17T16:40:07.464Z,86.65
2018-12-17T16:42:37.088Z,86.96
2018-12-17T16:45:07.624Z,87.00
2018-12-17T16:47:36.978Z,86.77
2018-12-17T16:50:08.033Z,86.61
2018-12-17T16:52:37.132Z,86.56
2018-12-17T16:55:06.233Z,86.87
2018-12-17T16:57:34.962Z,86.88
2018-12-17T17:00:04.337Z,87.53
2018-12-17T17:02:33.536Z,87.34
2018-12-17T17:05:02.686Z,87.44
2018-12-17T17:07:31.552Z,87.56
2018-12-17T17:10:04.467Z,87.38
2018-12-17T17:12:33.543Z,87.48
2018-12-17T17:15:03.011Z,87.26
2018-12-17T17:17:31.949Z,87.69
2018-12-17T17:20:00.858Z,87.83
2018-12-17T17:22:30.195Z,88.24
2018-12-17T17:24:59.120Z,88.14
2018-12-17T17:27:28.163Z,88.29
2018-12-17T17:29:57.302Z,88.46
2018-12-17T17:32:26.448Z,88.36
2018-12-17T17:34:55.326Z,86.56
2018-12-17T17:37:24.341Z,85.47
2018-12-17T17:39:53.278Z,85.07
2018-12-17T17:42:22.316Z,85.77
2018-12-17T17:44:51.499Z,85.66
2018-12-17T17:47:20.475Z,86.29
2018-12-17T17:49:49.576Z,86.62
2018-12-17T17:52:18.721Z,86.77
2018-12-17T17:54:47.635Z,87.70
2018-12-17T17:57:16.691Z,87.99
2018-12-17T17:59:45.815Z,87.46
2018-12-17T18:02:18.824Z,86.64
2018-12-17T18:04:45.775Z,86.25
2018-12-17T18:07:14.668Z,85.87
2018-12-17T18:09:43.534Z,85.73
2018-12-17T18:12:13.205Z,86.41
2018-12-17T18:14:43.090Z,86.57
2018-12-17T18:17:12.076Z,86.67
2018-12-17T18:19:41.513Z,86.92
2018-12-17T18:22:10.616Z,87.16
2018-12-17T18:24:40.065Z,88.03
2018-12-17T18:27:09.125Z,88.06
2018-12-17T18:29:38.198Z,87.37
2018-12-17T18:32:07.313Z,87.44
2018-12-17T18:34:36.551Z,87.26
2018-12-17T18:37:05.441Z,87.59
2018-12-17T18:39:34.827Z,87.19
2018-12-17T18:42:03.792Z,86.91
2018-12-17T18:44:32.826Z,86.81
2018-12-17T18:47:01.950Z,87.30
2018-12-17T18:49:32.028Z,87.41
2018-12-17T18:52:01.725Z,87.03
2018-12-17T18:54:30.681Z,86.89
2018-12-17T18:56:59.786Z,87.12
2018-12-17T18:59:28.553Z,87.37
2018-12-17T19:01:57.501Z,87.31
2018-12-17T19:04:26.673Z,87.25
2018-12-17T19:06:55.761Z,87.36
2018-12-17T19:09:24.798Z,86.98
2018-12-17T19:11:53.839Z,87.41
2018-12-17T19:14:22.777Z,87.32
2018-12-17T19:16:51.468Z,87.21
2018-12-17T19:19:21.068Z,87.72
2018-12-17T19:21:49.781Z,88.32
2018-12-17T19:24:18.853Z,88.17
2018-12-17T19:26:47.727Z,88.03
2018-12-17T19:29:16.785Z,87.94
2018-12-17T19:31:45.701Z,87.31
2018-12-17T19:34:14.749Z,86.87
2018-12-17T19:36:43.772Z,87.12
2018-12-17T19:39:12.911Z,87.65
2018-12-17T19:41:42.377Z,87.72
2018-12-17T19:44:11.275Z,87.82
2018-12-17T19:46:40.175Z,87.51
2018-12-17T19:49:08.947Z,86.12
2018-12-17T19:51:37.577Z,85.78
2018-12-17T19:54:06.714Z,85.71
2018-12-17T19:56:35.652Z,85.48
2018-12-17T19:59:04.449Z,85.67
2018-12-17T20:01:33.334Z,86.28
2018-12-17T20:04:02.265Z,85.93
2018-12-17T20:06:31.264Z,85.84
2018-12-17T20:09:00.318Z,86.01
2018-12-17T20:11:29.302Z,86.19
2018-12-17T20:13:58.171Z,86.96
2018-12-17T20:16:27.108Z,86.27
2018-12-17T20:18:56.181Z,85.94
2018-12-17T20:21:25.316Z,85.90
2018-12-17T20:23:54.066Z,85.28
2018-12-17T20:26:23.174Z,85.33
2018-12-17T20:28:51.884Z,85.54
2018-12-17T20:31:20.804Z,84.83
2018-12-17T20:33:49.668Z,84.88
2018-12-17T20:36:18.744Z,85.49
2018-12-17T20:38:47.857Z,85.58
2018-12-17T20:41:16.596Z,85.06
2018-12-17T20:43:45.457Z,85.98
2018-12-17T20:46:14.473Z,85.84
2018-12-17T20:48:43.566Z,86.22
2018-12-17T20:51:12.620Z,85.97
2018-12-17T20:53:41.568Z,86.07
2018-12-17T20:56:10.196Z,86.21
2018-12-17T20:58:39.228Z,86.22
2018-12-17T21:01:08.323Z,86.26
2018-12-17T21:03:37.148Z,85.92
2018-12-17T21:06:06.028Z,86.51
2018-12-17T21:08:35.118Z,85.68
2018-12-17T21:11:04.545Z,85.42
2018-12-17T21:13:33.902Z,86.43
2018-12-17T21:16:02.932Z,85.87
2018-12-17T21:18:31.976Z,86.13
2018-12-17T21:21:00.843Z,85.21
2018-12-17T21:23:30.180Z,85.12
2018-12-17T21:25:59.169Z,83.30
2018-12-17T21:28:28.261Z,84.26
2018-12-17T21:30:57.223Z,84.95
2018-12-17T21:33:26.363Z,85.22
2018-12-17T21:35:55.449Z,85.21
2018-12-17T21:38:24.492Z,83.97
2018-12-17T21:40:53.531Z,83.58
2018-12-17T21:43:22.458Z,84.37
2018-12-17T21:45:51.525Z,84.64
2018-12-17T21:48:20.441Z,84.02
2018-12-17T21:50:49.493Z,83.62
2018-12-17T21:53:18.429Z,83.32
2018-12-17T21:55:47.131Z,83.78
2018-12-17T21:58:16.088Z,84.47
2018-12-17T22:00:44.898Z,84.52
2018-12-17T22:03:13.951Z,84.69
2018-12-17T22:05:43.045Z,84.24
2018-12-17T22:08:12.854Z,83.11
2018-12-17T22:10:41.907Z,82.75
2018-12-17T22:13:10.865Z,83.18
2018-12-17T22:15:39.709Z,82.73
2018-12-17T22:18:08.824Z,83.27
2018-12-17T22:20:37.881Z,83.21
2018-12-17T22:23:06.913Z,83.29
2018-12-17T22:25:35.901Z,83.91
2018-12-17T22:28:04.609Z,84.28
2018-12-17T22:30:33.693Z,84.59
2018-12-17T22:33:02.893Z,83.58
2018-12-17T22:35:31.872Z,83.08
2018-12-17T22:38:00.613Z,83.95
2018-12-17T22:40:29.650Z,84.09
2018-12-17T22:42:58.848Z,83.71
2018-12-17T22:45:29.493Z,83.95
2018-12-17T22:47:58.824Z,82.88
2018-12-17T22:50:27.872Z,83.05
2018-12-17T22:52:56.569Z,83.14
2018-12-17T22:55:25.763Z,82.98
2018-12-17T22:57:54.746Z,83.68
2018-12-17T23:00:24.148Z,83.09
2018-12-17T23:02:53.038Z,82.99
2018-12-17T23:05:22.098Z,83.32
2018-12-17T23:07:51.008Z,83.22
2018-12-17T23:10:32.815Z,83.08
2018-12-17T23:13:12.558Z,83.41
2018-12-17T23:15:52.325Z,83.91
2018-12-17T23:18:19.864Z,84.69
2018-12-17T23:20:48.759Z,83.94
2018-12-17T23:23:17.791Z,82.87
2018-12-17T23:25:47.863Z,83.26
2018-12-17T23:28:16.715Z,83.67
2018-12-17T23:30:45.848Z,82.78
2018-12-17T23:33:14.760Z,83.21
2018-12-17T23:35:43.489Z,83.87
2018-12-17T23:38:12.366Z,84.40
2018-12-17T23:40:41.418Z,84.78
2018-12-17T23:43:10.602Z,85.13
2018-12-17T23:45:39.760Z,84.04
2018-12-17T23:48:08.831Z,83.44
2018-12-17T23:50:38.157Z,84.16
2018-12-17T23:53:07.244Z,84.25
2018-12-17T23:55:36.247Z,84.52
2018-12-17T23:58:05.277Z,83.93
